Time;durP1;ratioP1;P1;durP2;ratioP2;P2;SDS_P1;SDS_P2;PMS_P1;PMS_P2;Temp;Humidity;BMP_temperature;BMP_pressure;BME280_temperature;BME280_humidity;BME280_pressure;Samples;Min_cycle;Max_cycle;Signal;HPM_P1;HPM_P2
2021/06/01 00:02:15;;;;;;;16.13;7.97;;;14.80;99.90;;;;;;5093483;28;20570;-60
2021/06/01 00:04:41;;;;;;;11.93;8.65;;;14.70;99.90;;;;;;5093526;28;20070;-60
2021/06/01 00:07:07;;;;;;;12.02;8.30;;;14.70;99.90;;;;;;5093418;28;20044;-60
2021/06/01 00:09:33;;;;;;;10.35;7.80;;;14.60;99.90;;;;;;5093600;28;20052;-60
2021/06/01 00:11:59;;;;;;;10.40;7.45;;;14.60;99.90;;;;;;5093477;28;20163;-60
2021/06/01 00:14:25;;;;;;;10.93;7.70;;;14.60;99.90;;;;;;5093443;28;20040;-60
2021/06/01 00:16:51;;;;;;;16.77;8.15;;;14.60;99.90;;;;;;5093428;28;20081;-60
2021/06/01 00:19:17;;;;;;;10.27;8.07;;;14.50;99.90;;;;;;5093184;28;20036;-60
2021/06/01 00:21:43;;;;;;;9.90;7.47;;;14.60;99.90;;;;;;5093047;28;20052;-60
2021/06/01 00:24:09;;;;;;;12.32;8.05;;;14.50;99.90;;;;;;5093347;28;20439;-60
2021/06/01 00:26:37;;;;;;;15.13;7.78;;;14.40;99.90;;;;;;5093223;28;20044;-60
2021/06/01 00:29:04;;;;;;;13.35;8.50;;;14.40;99.90;;;;;;5092965;28;20051;-60
2021/06/01 00:31:30;;;;;;;11.65;8.32;;;14.40;99.90;;;;;;5093065;28;20079;-60
2021/06/01 00:33:56;;;;;;;14.00;8.20;;;14.30;99.90;;;;;;5092561;28;20101;-60
2021/06/01 00:36:22;;;;;;;12.45;9.13;;;14.30;99.90;;;;;;5092742;28;20440;-60
2021/06/01 00:38:48;;;;;;;9.93;7.68;;;14.30;99.90;;;;;;5093022;28;20094;-60
2021/06/01 00:41:14;;;;;;;12.38;8.38;;;14.30;99.90;;;;;;5092849;28;20068;-60
2021/06/01 00:43:40;;;;;;;11.93;8.23;;;14.30;99.90;;;;;;5092730;28;20047;-60
2021/06/01 00:46:06;;;;;;;13.25;9.00;;;14.30;99.90;;;;;;5092717;28;20064;-60
2021/06/01 00:48:32;;;;;;;11.75;7.80;;;14.20;99.90;;;;;;5073993;28;20048;-59
2021/06/01 00:50:59;;;;;;;9.32;7.47;;;14.20;99.90;;;;;;5092756;28;20055;-60
2021/06/01 00:53:25;;;;;;;12.77;8.10;;;14.20;99.90;;;;;;5092574;28;20095;-60
2021/06/01 00:55:51;;;;;;;13.35;8.27;;;14.20;99.90;;;;;;5092433;28;20054;-60
2021/06/01 00:58:17;;;;;;;11.77;7.88;;;14.00;99.90;;;;;;5092458;28;20044;-60
2021/06/01 01:03:28;;;;;;;10.73;7.95;;;14.10;99.90;;;;;;5092580;28;20058;-60
2021/06/01 01:06:02;;;;;;;10.55;8.00;;;14.00;99.90;;;;;;5092600;28;20095;-59
2021/06/01 01:08:51;;;;;;;10.70;7.75;;;14.00;99.90;;;;;;5092387;28;20044;-60
2021/06/01 01:11:20;;;;;;;13.83;8.73;;;14.00;99.90;;;;;;5092272;28;20131;-60
2021/06/01 01:14:13;;;;;;;18.95;8.50;;;14.00;99.90;;;;;;5092248;28;20052;-60
2021/06/01 01:16:47;;;;;;;12.70;8.25;;;14.00;99.90;;;;;;5092446;28;20085;-59
2021/06/01 01:19:15;;;;;;;12.13;8.20;;;14.00;99.90;;;;;;5092417;28;20449;-60
2021/06/01 01:21:52;;;;;;;14.43;8.40;;;13.90;99.90;;;;;;5092142;28;20117;-60
2021/06/01 01:24:39;;;;;;;14.50;8.05;;;13.90;99.90;;;;;;5091834;28;20040;-61
2021/06/01 01:27:34;;;;;;;11.68;7.93;;;13.90;99.90;;;;;;5091975;28;20032;-59
2021/06/01 01:30:03;;;;;;;12.80;8.52;;;13.90;99.90;;;;;;5091980;28;20063;-60
2021/06/01 01:32:41;;;;;;;15.10;8.90;;;13.80;99.90;;;;;;5091982;28;20046;-59
2021/06/01 01:35:10;;;;;;;12.20;8.63;;;13.90;99.90;;;;;;5091920;28;20499;-60
2021/06/01 01:37:37;;;;;;;12.77;9.13;;;13.80;99.90;;;;;;5092019;28;20044;-59
2021/06/01 01:40:06;;;;;;;11.43;8.13;;;13.80;99.90;;;;;;5091749;28;20041;-59
2021/06/01 01:42:42;;;;;;;15.40;8.68;;;13.80;99.90;;;;;;5090756;28;20044;-60
2021/06/01 01:45:12;;;;;;;11.68;8.73;;;13.70;99.90;;;;;;5091168;28;20051;-59
2021/06/01 01:50:14;;;;;;;14.35;8.95;;;13.60;99.90;;;;;;5091876;28;20052;-59
2021/06/01 01:52:41;;;;;;;12.40;8.27;;;13.60;99.90;;;;;;5091691;28;20048;-60
2021/06/01 01:55:10;;;;;;;16.40;8.80;;;13.60;99.90;;;;;;5091776;28;20044;-59
2021/06/01 01:57:38;;;;;;;13.82;9.50;;;13.50;99.90;;;;;;5091666;28;20115;-59
2021/06/01 02:00:12;;;;;;;11.43;8.93;;;13.60;99.90;;;;;;5091754;28;20044;-59
2021/06/01 02:02:38;;;;;;;13.23;9.20;;;13.60;99.90;;;;;;5091826;28;20178;-60
2021/06/01 02:05:06;;;;;;;13.65;9.07;;;13.50;99.90;;;;;;5091733;28;20077;-59
2021/06/01 02:07:32;;;;;;;12.35;9.15;;;13.50;99.90;;;;;;5091484;28;20485;-59
2021/06/01 02:09:59;;;;;;;15.98;9.77;;;13.50;99.90;;;;;;5091619;28;20489;-59
2021/06/01 02:12:25;;;;;;;13.80;9.70;;;13.40;99.90;;;;;;5091661;28;20113;-59
2021/06/01 02:14:53;;;;;;;12.32;9.50;;;13.50;99.90;;;;;;5091830;28;20044;-59
2021/06/01 02:17:19;;;;;;;14.10;9.35;;;13.40;99.90;;;;;;5091639;28;20048;-59
2021/06/01 02:19:47;;;;;;;12.95;9.18;;;13.40;99.90;;;;;;5091489;28;20044;-60
2021/06/01 02:25:22;;;;;;;13.57;9.15;;;13.30;99.90;;;;;;5091728;28;20052;-59
2021/06/01 02:27:58;;;;;;;12.82;9.45;;;13.30;99.90;;;;;;5091562;28;20137;-59
2021/06/01 02:30:29;;;;;;;11.32;8.48;;;13.30;99.90;;;;;;5091297;28;20106;-59
2021/06/01 02:32:58;;;;;;;13.13;9.50;;;13.20;99.90;;;;;;5091070;28;20094;-60
2021/06/01 02:35:33;;;;;;;14.20;9.10;;;13.20;99.90;;;;;;5091607;28;20044;-59
2021/06/01 02:38:02;;;;;;;12.70;9.90;;;13.20;99.90;;;;;;5091452;28;20074;-60
2021/06/01 02:40:33;;;;;;;14.85;9.50;;;13.20;99.90;;;;;;5091296;28;20051;-59
2021/06/01 02:43:03;;;;;;;18.60;9.85;;;13.10;99.90;;;;;;5091314;28;20050;-59
2021/06/01 02:45:32;;;;;;;19.20;10.60;;;13.20;99.90;;;;;;5091081;28;20391;-59
2021/06/01 02:47:58;;;;;;;12.48;9.80;;;13.20;99.90;;;;;;5090880;28;20056;-59
2021/06/01 02:50:25;;;;;;;15.07;10.32;;;13.20;99.90;;;;;;5091078;28;20527;-59
2021/06/01 02:52:51;;;;;;;13.73;9.85;;;13.20;99.90;;;;;;5091007;28;20051;-60
2021/06/01 02:55:19;;;;;;;14.63;9.43;;;13.20;99.90;;;;;;5090990;28;20538;-59
2021/06/01 02:57:46;;;;;;;12.32;9.50;;;13.00;99.90;;;;;;5092941;28;20040;-59
2021/06/01 03:00:15;;;;;;;16.92;10.48;;;13.10;99.90;;;;;;5095122;28;20036;-59
2021/06/01 03:02:41;;;;;;;17.80;9.52;;;13.00;99.90;;;;;;5094573;28;20071;-59
2021/06/01 03:05:08;;;;;;;13.95;9.68;;;13.10;99.90;;;;;;5094749;28;20056;-60
2021/06/01 03:07:37;;;;;;;16.75;10.38;;;13.00;99.90;;;;;;5094524;28;20044;-59
2021/06/01 03:10:06;;;;;;;13.00;9.77;;;12.90;99.90;;;;;;5094653;28;20044;-59
2021/06/01 03:14:59;;;;;;;16.13;10.98;;;12.80;99.90;;;;;;5094598;28;20535;-59
2021/06/01 03:17:25;;;;;;;12.80;10.05;;;12.80;99.90;;;;;;5094259;28;20047;-59
2021/06/01 03:19:51;;;;;;;13.82;10.65;;;12.90;99.90;;;;;;5094292;28;20127;-59
2021/06/01 03:22:17;;;;;;;12.90;9.82;;;12.80;99.90;;;;;;5094304;28;20047;-59
2021/06/01 03:24:46;;;;;;;13.45;9.95;;;12.90;99.90;;;;;;5094174;28;20079;-59
2021/06/01 03:27:12;;;;;;;18.52;11.45;;;12.80;99.90;;;;;;5094095;28;20486;-58
2021/06/01 03:29:38;;;;;;;14.93;11.15;;;12.80;99.90;;;;;;5094289;28;20126;-59
2021/06/01 03:32:04;;;;;;;15.48;10.93;;;12.80;99.90;;;;;;5093988;28;20504;-59
2021/06/01 03:34:31;;;;;;;14.25;9.95;;;12.80;99.90;;;;;;5094147;28;20038;-59
2021/06/01 03:36:56;;;;;;;15.98;10.88;;;12.80;99.90;;;;;;5094146;28;20067;-59
2021/06/01 03:39:22;;;;;;;17.95;10.48;;;12.70;99.90;;;;;;5093960;28;20040;-58
2021/06/01 03:41:48;;;;;;;17.80;10.25;;;12.70;99.90;;;;;;5093738;28;20394;-58
2021/06/01 03:44:15;;;;;;;20.75;11.15;;;12.70;99.90;;;;;;5094142;28;20048;-59
2021/06/01 03:46:40;;;;;;;14.88;10.27;;;12.70;99.90;;;;;;5093894;28;20072;-59
2021/06/01 03:49:07;;;;;;;13.63;10.45;;;12.80;99.90;;;;;;5093569;28;20074;-59
2021/06/01 03:51:32;;;;;;;15.00;11.00;;;12.70;99.90;;;;;;5093619;28;20466;-59
2021/06/01 03:53:58;;;;;;;20.60;11.63;;;12.80;99.90;;;;;;5093632;28;20063;-58
2021/06/01 03:56:24;;;;;;;16.60;10.88;;;12.80;99.90;;;;;;5093629;28;20048;-59
2021/06/01 03:58:50;;;;;;;15.25;10.82;;;12.80;99.90;;;;;;5093426;28;20040;-59
2021/06/01 04:01:16;;;;;;;17.73;11.75;;;12.90;99.90;;;;;;5093789;28;20048;-59
2021/06/01 04:03:41;;;;;;;16.65;10.65;;;12.90;99.90;;;;;;5093861;28;20150;-59
2021/06/01 04:06:09;;;;;;;17.50;11.73;;;12.90;99.90;;;;;;5093567;28;20039;-59
2021/06/01 04:08:35;;;;;;;21.50;11.82;;;12.90;99.90;;;;;;5093036;28;20421;-59
2021/06/01 04:11:01;;;;;;;17.70;12.95;;;13.00;99.90;;;;;;5093292;28;20040;-58
2021/06/01 04:13:27;;;;;;;16.02;11.43;;;12.90;99.90;;;;;;5093497;28;20409;-59
2021/06/01 04:15:53;;;;;;;22.20;13.35;;;13.00;99.90;;;;;;5093313;28;20051;-59
2021/06/01 04:18:18;;;;;;;16.95;11.43;;;13.00;99.90;;;;;;5093217;28;20040;-58
2021/06/01 04:20:44;;;;;;;19.95;11.75;;;13.00;99.90;;;;;;5093262;28;20085;-58
2021/06/01 04:23:10;;;;;;;14.32;10.80;;;13.00;99.90;;;;;;5093085;28;20090;-59
2021/06/01 04:25:36;;;;;;;16.30;11.50;;;13.10;99.90;;;;;;5093024;28;20055;-59
2021/06/01 04:28:02;;;;;;;15.32;11.98;;;13.10;99.90;;;;;;5093246;28;20448;-59
2021/06/01 04:30:27;;;;;;;15.13;11.02;;;13.20;99.90;;;;;;5092920;28;20111;-58
2021/06/01 04:32:54;;;;;;;18.00;12.05;;;13.30;99.90;;;;;;5092975;28;20048;-59
2021/06/01 04:35:20;;;;;;;19.92;12.88;;;13.30;99.90;;;;;;5092844;28;20043;-58
2021/06/01 04:37:46;;;;;;;16.42;11.60;;;13.40;99.90;;;;;;5091964;28;20044;-59
2021/06/01 04:40:14;;;;;;;17.67;12.57;;;13.40;99.90;;;;;;5092787;28;20048;-59
2021/06/01 04:42:41;;;;;;;16.92;12.32;;;13.50;99.90;;;;;;5092955;28;20047;-59
2021/06/01 04:45:08;;;;;;;19.33;11.55;;;13.60;99.90;;;;;;5092749;28;20040;-58
2021/06/01 04:47:33;;;;;;;17.90;11.88;;;13.70;99.90;;;;;;5092591;28;20047;-58
2021/06/01 04:49:59;;;;;;;18.73;12.18;;;13.70;99.90;;;;;;5092764;28;20082;-59
2021/06/01 04:52:25;;;;;;;17.48;11.82;;;13.90;99.90;;;;;;5092502;28;20054;-58
2021/06/01 04:54:51;;;;;;;18.17;11.88;;;13.90;99.90;;;;;;5092786;28;20052;-59
2021/06/01 04:57:17;;;;;;;17.98;11.80;;;14.00;99.90;;;;;;5092508;28;20037;-58
2021/06/01 04:59:43;;;;;;;17.50;11.50;;;14.10;99.90;;;;;;5092705;28;20062;-58
2021/06/01 05:02:09;;;;;;;34.97;13.43;;;14.20;99.90;;;;;;5093041;28;20043;-59
2021/06/01 05:04:35;;;;;;;13.60;10.90;;;14.30;99.90;;;;;;5092782;28;20466;-59
2021/06/01 05:07:01;;;;;;;15.75;11.18;;;14.40;99.90;;;;;;5092231;28;20043;-59
2021/06/01 05:09:27;;;;;;;17.33;10.85;;;14.50;99.90;;;;;;5092302;28;20070;-59
2021/06/01 05:11:53;;;;;;;13.32;9.88;;;14.60;99.90;;;;;;5092164;28;20039;-59
2021/06/01 05:14:19;;;;;;;15.38;9.68;;;14.70;99.90;;;;;;5092390;28;20123;-59
2021/06/01 05:16:45;;;;;;;11.68;8.52;;;14.80;99.90;;;;;;5092562;28;20062;-59
2021/06/01 05:19:11;;;;;;;11.65;8.80;;;14.90;99.90;;;;;;5091481;28;20040;-59
2021/06/01 05:21:37;;;;;;;13.23;9.93;;;15.00;99.90;;;;;;5091737;28;20109;-59
2021/06/01 05:24:03;;;;;;;11.10;8.68;;;15.10;99.90;;;;;;5092286;28;20073;-59
2021/06/01 05:26:29;;;;;;;17.00;8.73;;;15.20;99.90;;;;;;5092249;28;20040;-59
2021/06/01 05:28:55;;;;;;;15.52;8.90;;;15.40;99.90;;;;;;5091923;28;20588;-60
2021/06/01 05:33:52;;;;;;;11.52;7.80;;;15.60;99.90;;;;;;5091958;28;20044;-59
2021/06/01 05:36:18;;;;;;;10.00;7.43;;;15.70;99.90;;;;;;5092247;28;20040;-59
2021/06/01 05:38:43;;;;;;;11.70;8.32;;;15.80;99.90;;;;;;5092037;28;20036;-58
2021/06/01 05:41:09;;;;;;;8.85;7.50;;;15.90;99.90;;;;;;5091999;28;20044;-59
2021/06/01 05:43:35;;;;;;;11.82;7.43;;;16.00;99.90;;;;;;5091821;28;20044;-59
2021/06/01 05:46:01;;;;;;;13.45;7.93;;;16.10;99.90;;;;;;5091817;28;20040;-59
2021/06/01 05:48:27;;;;;;;9.65;7.25;;;16.20;99.90;;;;;;5091739;28;20047;-60
2021/06/01 05:50:56;;;;;;;9.60;7.22;;;16.40;99.90;;;;;;5091737;28;20044;-59
2021/06/01 05:53:24;;;;;;;10.95;6.60;;;16.50;99.90;;;;;;5091584;28;20089;-60
2021/06/01 05:55:50;;;;;;;10.48;6.93;;;16.60;99.90;;;;;;5091743;28;20127;-59
2021/06/01 05:58:15;;;;;;;10.85;7.15;;;16.70;99.90;;;;;;5091924;28;20040;-60
2021/06/01 06:00:41;;;;;;;8.93;7.25;;;16.90;99.90;;;;;;5088868;28;20132;-59
2021/06/01 06:03:08;;;;;;;12.90;8.30;;;17.00;99.90;;;;;;5092773;28;20040;-60
2021/06/01 06:05:34;;;;;;;12.73;7.38;;;17.10;99.90;;;;;;5112073;28;20043;-60
2021/06/01 06:08:12;;;;;;;11.55;7.90;;;17.30;99.90;;;;;;5111484;28;20494;-59
2021/06/01 06:10:38;;;;;;;9.20;7.35;;;17.40;99.90;;;;;;5111934;28;20044;-60
2021/06/01 06:13:05;;;;;;;8.43;6.55;;;17.50;99.90;;;;;;5112042;28;20043;-60
2021/06/01 06:15:31;;;;;;;9.10;6.65;;;17.50;99.90;;;;;;5111953;28;20085;-60
2021/06/01 06:18:04;;;;;;;15.70;7.13;;;17.70;99.90;;;;;;5111736;28;20122;-60
2021/06/01 06:20:33;;;;;;;15.50;7.10;;;17.80;99.90;;;;;;5112064;28;20046;-59
2021/06/01 06:22:59;;;;;;;8.13;5.88;;;17.90;99.90;;;;;;5112197;28;20431;-60
2021/06/01 06:25:25;;;;;;;11.02;6.40;;;18.10;99.90;;;;;;5111941;28;20086;-61
2021/06/01 06:27:51;;;;;;;10.88;6.20;;;18.20;99.90;;;;;;5111940;28;20497;-61
2021/06/01 06:30:18;;;;;;;12.25;6.32;;;18.40;99.90;;;;;;5112062;28;20054;-61
2021/06/01 06:32:44;;;;;;;8.20;6.32;;;18.60;99.90;;;;;;5115101;28;20039;-61
2021/06/01 06:35:10;;;;;;;9.88;6.07;;;18.70;99.90;;;;;;5115713;28;20044;-60
2021/06/01 06:37:36;;;;;;;7.55;6.38;;;18.90;99.90;;;;;;5115689;28;20130;-60
2021/06/01 06:40:04;;;;;;;8.73;5.75;;;19.30;99.90;;;;;;5115581;28;20040;-59
2021/06/01 06:42:35;;;;;;;8.75;5.35;;;19.90;99.90;;;;;;5115450;28;20040;-60
2021/06/01 06:45:03;;;;;;;12.65;5.30;;;20.10;99.90;;;;;;5115402;28;20068;-59
2021/06/01 06:50:16;;;;;;;8.85;6.00;;;20.50;99.90;;;;;;5115567;28;20048;-59
2021/06/01 06:52:43;;;;;;;9.48;6.18;;;20.50;99.90;;;;;;5115566;28;20079;-59
2021/06/01 06:55:10;;;;;;;6.03;4.45;;;20.80;99.00;;;;;;5115293;28;20047;-59
2021/06/01 06:57:38;;;;;;;8.40;5.05;;;21.10;99.30;;;;;;5115101;28;20080;-59
2021/06/01 07:00:08;;;;;;;5.87;5.00;;;21.50;99.20;;;;;;5115284;28;20474;-60
2021/06/01 07:02:36;;;;;;;7.55;4.97;;;21.80;98.40;;;;;;5115329;28;20126;-60
2021/06/01 07:05:05;;;;;;;6.15;5.00;;;22.10;99.20;;;;;;5115100;28;20046;-59
2021/06/01 07:07:31;;;;;;;9.07;5.40;;;22.20;97.80;;;;;;5114931;28;20044;-60
2021/06/01 07:09:57;;;;;;;7.35;4.65;;;22.60;97.40;;;;;;5114902;28;20126;-60
2021/06/01 07:12:23;;;;;;;5.30;4.05;;;22.80;97.20;;;;;;5114704;28;20134;-61
2021/06/01 07:14:58;;;;;;;9.52;4.80;;;23.10;97.20;;;;;;5115024;28;20040;-61
2021/06/01 07:17:25;;;;;;;9.65;4.55;;;23.60;95.70;;;;;;5114680;28;20043;-60
2021/06/01 07:19:55;;;;;;;6.65;3.88;;;23.70;94.80;;;;;;5114750;28;20040;-60
2021/06/01 07:22:21;;;;;;;9.77;4.30;;;23.70;93.70;;;;;;5114671;28;20047;-59
2021/06/01 07:24:48;;;;;;;7.85;3.85;;;24.00;93.90;;;;;;5114428;28;20047;-60
2021/06/01 07:27:34;;;;;;;6.78;3.55;;;24.00;93.00;;;;;;5099747;28;20054;-60
2021/06/01 07:30:04;;;;;;;4.72;3.05;;;24.10;92.10;;;;;;5114498;28;20040;-60
2021/06/01 07:32:35;;;;;;;9.93;3.97;;;24.20;91.10;;;;;;5114415;28;20094;-60
2021/06/01 07:35:02;;;;;;;10.05;3.90;;;24.60;91.80;;;;;;5114266;28;20401;-59
2021/06/01 07:37:29;;;;;;;5.70;3.30;;;24.70;91.20;;;;;;5114565;28;20088;-60
2021/06/01 07:39:55;;;;;;;5.63;4.05;;;25.10;91.20;;;;;;5114369;28;20286;-59
2021/06/01 07:42:22;;;;;;;6.90;3.80;;;25.10;90.80;;;;;;5113750;28;20048;-60
2021/06/01 07:44:48;;;;;;;6.30;3.15;;;25.40;91.30;;;;;;5114203;28;20044;-60
2021/06/01 07:47:13;;;;;;;6.43;3.03;;;25.90;90.20;;;;;;5114217;28;20488;-60
2021/06/01 07:49:39;;;;;;;3.22;2.80;;;26.10;87.80;;;;;;5114014;28;20116;-61
2021/06/01 07:52:05;;;;;;;8.30;3.17;;;26.10;86.90;;;;;;5114159;28;20044;-60
2021/06/01 07:54:33;;;;;;;4.18;3.13;;;26.20;85.90;;;;;;5114104;28;20116;-59
2021/06/01 07:56:59;;;;;;;10.00;3.85;;;26.50;85.10;;;;;;5114124;28;20082;-60
2021/06/01 07:59:39;;;;;;;5.93;3.47;;;26.50;82.00;;;;;;5113984;28;20051;-60
2021/06/01 08:02:05;;;;;;;5.25;3.38;;;26.80;82.40;;;;;;5113721;28;20050;-60
2021/06/01 08:04:37;;;;;;;5.53;2.47;;;27.00;82.40;;;;;;5113965;28;20066;-60
2021/06/01 08:07:06;;;;;;;6.22;3.00;;;27.20;81.70;;;;;;5113804;28;20035;-61
2021/06/01 08:09:32;;;;;;;7.20;2.90;;;27.20;79.10;;;;;;5113708;28;20485;-60
2021/06/01 08:12:02;;;;;;;2.83;2.33;;;27.70;79.60;;;;;;5113689;28;20040;-61
2021/06/01 08:14:37;;;;;;;5.15;2.50;;;28.00;77.30;;;;;;5113526;28;20408;-61
2021/06/01 08:17:04;;;;;;;5.38;2.45;;;28.20;74.60;;;;;;5113749;28;20046;-60
2021/06/01 08:19:33;;;;;;;5.70;2.28;;;28.50;75.50;;;;;;5113620;28;20050;-61
2021/06/01 08:24:34;;;;;;;6.10;2.40;;;28.20;70.90;;;;;;5113467;28;20050;-61
2021/06/01 08:27:01;;;;;;;4.85;2.50;;;28.10;73.90;;;;;;5113241;28;20100;-61
2021/06/01 08:29:27;;;;;;;6.85;2.83;;;28.60;73.40;;;;;;5113386;28;20051;-61
2021/06/01 08:31:53;;;;;;;7.00;2.50;;;28.80;71.30;;;;;;5113409;28;20036;-60
2021/06/01 08:34:19;;;;;;;4.18;2.30;;;28.10;70.50;;;;;;5113283;28;20065;-61
2021/06/01 08:36:44;;;;;;;3.95;2.40;;;28.30;69.40;;;;;;5113213;28;20042;-61
2021/06/01 08:39:11;;;;;;;5.55;2.22;;;28.60;71.00;;;;;;5095077;28;20044;-61
2021/06/01 08:41:38;;;;;;;5.35;2.28;;;28.80;67.90;;;;;;5113267;28;20051;-60
2021/06/01 08:44:05;;;;;;;2.60;1.77;;;29.10;68.50;;;;;;5113519;28;20432;-60
2021/06/01 08:46:33;;;;;;;3.10;2.00;;;28.90;68.00;;;;;;5112994;28;20055;-61
2021/06/01 08:48:59;;;;;;;2.00;1.77;;;29.00;63.70;;;;;;5112920;28;20040;-61
2021/06/01 08:51:26;;;;;;;4.85;2.20;;;29.40;65.10;;;;;;5113030;28;20069;-61
2021/06/01 08:53:55;;;;;;;3.15;2.00;;;29.60;66.10;;;;;;5112754;28;20097;-61
2021/06/01 08:56:21;;;;;;;4.18;2.20;;;29.70;64.30;;;;;;5094556;28;20126;-61
2021/06/01 08:58:49;;;;;;;4.15;2.08;;;29.40;64.60;;;;;;5113000;28;20500;-61
2021/06/01 09:01:19;;;;;;;4.07;2.10;;;29.10;64.70;;;;;;5112785;28;20481;-61
2021/06/01 09:03:49;;;;;;;3.72;2.28;;;28.80;62.80;;;;;;5112658;28;20485;-61
2021/06/01 09:09:04;;;;;;;3.88;2.20;;;28.30;62.90;;;;;;5112328;28;20481;-62
2021/06/01 09:22:39;;;;;;;3.63;1.90;;;28.80;63.90;;;;;;5112429;28;20073;-61
2021/06/01 09:25:15;;;;;;;7.78;2.00;;;29.30;61.40;;;;;;5094270;28;20043;-62
2021/06/01 09:27:42;;;;;;;4.20;2.17;;;29.40;60.60;;;;;;5112256;28;20374;-61
2021/06/01 09:30:08;;;;;;;2.08;1.77;;;29.00;61.60;;;;;;5112308;28;20449;-62
2021/06/01 09:32:43;;;;;;;2.72;2.30;;;28.90;61.60;;;;;;5112195;28;20075;-62
2021/06/01 09:35:09;;;;;;;2.90;1.85;;;28.60;62.20;;;;;;5112417;28;20039;-61
2021/06/01 09:37:36;;;;;;;1.70;1.60;;;28.70;61.00;;;;;;5112159;28;20043;-62
2021/06/01 09:40:04;;;;;;;3.05;1.80;;;29.00;59.70;;;;;;5112202;28;20072;-61
2021/06/01 09:42:32;;;;;;;5.20;2.22;;;29.50;60.80;;;;;;5112661;28;20051;-62
2021/06/01 09:45:05;;;;;;;3.38;2.03;;;29.50;60.60;;;;;;5112255;28;20082;-61
2021/06/01 09:47:51;;;;;;;5.78;2.28;;;29.50;61.20;;;;;;5111993;28;20177;-61
2021/06/01 09:53:02;;;;;;;3.30;2.20;;;29.60;59.50;;;;;;5111980;28;20426;-62
2021/06/01 09:55:33;;;;;;;3.08;1.90;;;29.30;57.90;;;;;;5112257;28;20135;-62
2021/06/01 09:58:01;;;;;;;3.17;1.95;;;29.00;58.90;;;;;;5111995;28;20040;-61
2021/06/01 10:00:29;;;;;;;3.47;1.92;;;29.40;59.20;;;;;;5111918;28;20055;-62
2021/06/01 10:03:02;;;;;;;5.07;1.85;;;29.90;58.20;;;;;;5111789;28;20040;-62
2021/06/01 10:05:31;;;;;;;4.55;2.45;;;29.90;57.90;;;;;;5112117;28;20457;-62
2021/06/01 10:07:59;;;;;;;3.25;2.20;;;30.00;57.80;;;;;;5116014;28;20039;-62
2021/06/01 10:10:32;;;;;;;5.43;2.50;;;29.70;58.80;;;;;;5116097;28;20070;-62
2021/06/01 10:13:00;;;;;;;5.70;2.33;;;29.80;58.60;;;;;;5116007;28;20849;-62
2021/06/01 10:15:29;;;;;;;5.50;2.15;;;30.20;58.40;;;;;;5115838;28;20134;-62
2021/06/01 10:17:55;;;;;;;4.85;2.42;;;30.50;57.80;;;;;;5116214;28;20366;-63
2021/06/01 10:20:27;;;;;;;6.10;2.22;;;30.30;57.30;;;;;;5116003;28;20050;-62
2021/06/01 10:22:53;;;;;;;4.88;2.25;;;30.30;58.80;;;;;;5115822;28;20047;-62
2021/06/01 10:25:19;;;;;;;5.15;2.72;;;30.40;57.50;;;;;;5104647;28;20378;-62
2021/06/01 10:27:47;;;;;;;4.45;2.50;;;29.80;57.60;;;;;;5095189;28;20040;-61
2021/06/01 10:30:15;;;;;;;6.32;1.95;;;30.50;59.50;;;;;;5095127;28;20551;-62
2021/06/01 10:32:51;;;;;;;5.60;2.80;;;30.20;56.80;;;;;;5095659;28;20040;-63
2021/06/01 10:35:19;;;;;;;3.28;2.28;;;30.20;60.20;;;;;;5094644;28;20044;-64
2021/06/01 10:49:33;;;;;;;3.25;2.30;;;30.70;55.00;;;;;;5094686;28;20051;-63
2021/06/01 10:51:56;;;;;;;3.47;2.17;;;31.00;55.70;;;;;;5094714;28;20075;-64
2021/06/01 10:54:41;;;;;;;5.93;2.65;;;31.10;55.80;;;;;;5095004;28;20409;-62
2021/06/01 10:57:08;;;;;;;5.13;2.08;;;31.40;57.20;;;;;;5094614;28;20101;-63
2021/06/01 11:02:30;;;;;;;6.22;3.15;;;31.00;58.00;;;;;;5094684;28;20541;-64
2021/06/01 11:05:11;;;;;;;4.25;2.28;;;30.90;55.90;;;;;;5094708;28;20154;-62
2021/06/01 11:07:59;;;;;;;3.60;2.15;;;30.60;56.70;;;;;;5094523;28;20467;-65
2021/06/01 11:10:41;;;;;;;6.47;2.47;;;31.20;54.50;;;;;;5094583;28;20115;-63
2021/06/01 11:13:30;;;;;;;3.90;2.30;;;31.50;56.30;;;;;;5094492;28;20048;-64
2021/06/01 11:15:59;;;;;;;6.15;2.40;;;30.80;56.00;;;;;;5094275;28;20044;-63
2021/06/01 11:18:52;;;;;;;4.60;2.40;;;30.20;56.30;;;;;;5093370;28;20444;-63
2021/06/01 11:35:20;;;;;;;5.57;2.67;;;30.50;55.00;;;;;;5094229;28;20044;-63
2021/06/01 11:38:03;;;;;;;5.90;2.00;;;30.30;55.40;;;;;;5094148;28;20040;-63
2021/06/01 11:40:51;;;;;;;5.65;2.58;;;30.50;57.20;;;;;;5094002;28;20035;-63
2021/06/01 11:43:18;;;;;;;4.00;1.92;;;30.30;55.90;;;;;;5094108;28;20051;-63
2021/06/01 11:51:12;;;;;;;3.38;2.58;;;30.60;55.90;;;;;;5093790;28;20123;-63
2021/06/01 11:54:02;;;;;;;4.90;2.15;;;30.30;55.50;;;;;;5093822;28;20049;-63
2021/06/01 11:56:39;;;;;;;3.03;2.33;;;30.20;58.40;;;;;;5093796;28;20115;-63
2021/06/01 12:02:04;;;;;;;5.32;2.80;;;30.70;57.20;;;;;;5093573;28;20437;-63
2021/06/01 12:04:53;;;;;;;8.30;2.67;;;29.50;57.00;;;;;;5093612;28;20051;-63
2021/06/01 12:18:33;;;;;;;8.60;3.00;;;29.80;57.20;;;;;;5093325;28;20040;-62
2021/06/01 12:21:00;;;;;;;6.57;2.58;;;29.60;56.50;;;;;;5093371;28;20068;-63
2021/06/01 12:24:11;;;;;;;3.88;2.78;;;29.70;58.30;;;;;;5093059;28;20044;-63
2021/06/01 12:32:34;;;;;;;3.22;2.80;;;29.40;56.20;;;;;;5093095;28;20494;-63
2021/06/01 12:35:46;;;;;;;4.68;2.75;;;29.20;57.60;;;;;;5092850;28;20048;-64
2021/06/01 12:43:56;;;;;;;4.25;2.78;;;28.60;58.30;;;;;;5092845;28;20048;-64
2021/06/01 13:20:03;;;;;;;4.13;2.70;;;28.20;62.10;;;;;;5092122;28;20497;-65
2021/06/01 13:22:57;;;;;;;8.20;3.35;;;28.10;59.50;;;;;;5092118;28;20055;-64
2021/06/01 13:56:04;;;;;;;4.95;2.70;;;27.00;62.40;;;;;;4932233;29;20050;-64
2021/06/01 13:58:50;;;;;;;6.10;3.10;;;27.00;62.40;;;;;;4932253;29;20051;-64
2021/06/01 14:01:54;;;;;;;6.43;2.95;;;27.10;63.30;;;;;;4932150;29;20107;-63
2021/06/01 14:15:37;;;;;;;5.18;2.72;;;26.60;66.10;;;;;;4937254;28;20091;-64
2021/06/01 14:54:41;;;;;;;4.82;3.47;;;26.20;67.20;;;;;;5009252;28;20052;-64
2021/06/01 15:49:56;;;;;;;6.35;3.17;;;25.90;73.10;;;;;;5011641;28;20077;-62
2021/06/01 15:55:22;;;;;;;10.57;3.97;;;25.70;74.10;;;;;;5011473;28;20475;-62
2021/06/01 16:14:28;;;;;;;5.50;3.45;;;25.40;75.00;;;;;;4992201;28;20051;-56
2021/06/01 16:22:42;;;;;;;4.75;2.97;;;24.80;70.50;;;;;;5051143;28;20495;-56
2021/06/01 16:33:33;;;;;;;5.13;2.95;;;24.50;72.40;;;;;;5074892;28;20513;-56
2021/06/01 17:06:06;;;;;;;6.85;3.38;;;23.40;74.50;;;;;;5028545;28;20048;-56
2021/06/01 17:11:16;;;;;;;6.93;3.35;;;23.40;75.40;;;;;;5019410;28;20041;-56
2021/06/01 17:13:59;;;;;;;5.13;3.25;;;23.40;74.20;;;;;;5002818;28;20121;-56
2021/06/01 17:16:45;;;;;;;4.97;3.92;;;23.30;75.00;;;;;;5017294;28;20479;-56
2021/06/01 17:35:18;;;;;;;7.22;4.47;;;23.00;75.40;;;;;;5040413;28;20041;-55
2021/06/01 17:37:44;;;;;;;6.88;4.70;;;23.00;77.00;;;;;;5034943;28;20058;-55
2021/06/01 17:40:13;;;;;;;8.18;4.05;;;22.80;77.20;;;;;;5028649;28;20505;-56
2021/06/01 17:42:46;;;;;;;12.27;4.53;;;22.70;77.10;;;;;;5037043;28;20048;-55
2021/06/01 17:45:15;;;;;;;5.75;3.80;;;22.60;77.40;;;;;;5029557;28;20041;-55
2021/06/01 17:47:52;;;;;;;6.82;4.70;;;22.50;78.10;;;;;;5028228;28;20140;-55
2021/06/01 17:50:20;;;;;;;5.72;3.58;;;22.50;79.60;;;;;;5046228;28;20052;-56
2021/06/01 17:52:49;;;;;;;6.57;4.28;;;22.70;79.10;;;;;;5048424;28;20041;-55
2021/06/01 17:55:16;;;;;;;6.28;3.88;;;22.70;78.50;;;;;;5034562;28;20561;-55
2021/06/01 17:57:44;;;;;;;7.93;3.83;;;22.70;79.30;;;;;;5023969;28;20045;-55
2021/06/01 18:00:11;;;;;;;7.78;4.10;;;22.60;79.00;;;;;;5009808;28;20065;-56
2021/06/01 18:02:38;;;;;;;5.50;3.83;;;22.50;79.30;;;;;;5009859;28;20050;-56
2021/06/01 18:05:04;;;;;;;5.05;4.10;;;22.60;79.70;;;;;;5010558;28;20049;-56
2021/06/01 18:07:36;;;;;;;9.75;4.20;;;22.60;80.30;;;;;;5029483;28;20037;-56
2021/06/01 19:51:11;;;;;;;6.20;4.35;;;18.80;85.10;;;;;;5110012;28;20051;-62
2021/06/01 19:53:40;;;;;;;7.10;3.67;;;18.70;85.40;;;;;;5097968;28;20081;-62
2021/06/01 19:56:07;;;;;;;5.75;4.03;;;18.60;85.60;;;;;;5104655;28;20153;-61
2021/06/01 19:58:36;;;;;;;6.18;4.22;;;18.50;85.60;;;;;;5105899;28;20546;-62
2021/06/01 20:01:06;;;;;;;5.60;3.58;;;18.40;86.20;;;;;;5096500;28;20036;-62
2021/06/01 20:03:33;;;;;;;6.45;4.35;;;18.40;86.60;;;;;;5081316;28;20050;-62
2021/06/01 20:06:00;;;;;;;6.82;4.28;;;18.40;86.20;;;;;;5105772;28;20571;-62
2021/06/01 20:08:25;;;;;;;12.18;4.45;;;18.30;86.40;;;;;;5106343;28;20660;-61
2021/06/01 20:10:54;;;;;;;8.00;4.32;;;18.20;86.80;;;;;;5098062;28;20040;-61
2021/06/01 20:13:22;;;;;;;7.28;3.78;;;18.10;87.00;;;;;;5109211;28;20389;-61
2021/06/01 20:15:48;;;;;;;6.45;3.60;;;18.10;87.20;;;;;;5099192;28;20378;-61